sensor_id;sensor_type;location;lat;lon;timestamp;P1;durP1;ratioP1;P2;durP2;ratioP2
60819;SDS011;46641;48.904;9.126;2023-04-02T00:00:22;0.40;;;0.40;;
60819;SDS011;46641;48.904;9.126;2023-04-02T00:10:30;0.30;;;0.30;;
60819;SDS011;46641;48.904;9.126;2023-04-02T00:15:27;0.37;;;0.37;;
60819;SDS011;46641;48.904;9.126;2023-04-02T00:20:18;0.53;;;0.37;;
60819;SDS011;46641;48.904;9.126;2023-04-02T00:25:13;0.50;;;0.50;;
60819;SDS011;46641;48.904;9.126;2023-04-02T00:30:04;0.87;;;0.50;;
60819;SDS011;46641;48.904;9.126;2023-04-02T00:34:55;0.57;;;0.57;;
60819;SDS011;46641;48.904;9.126;2023-04-02T00:39:47;0.50;;;0.50;;
60819;SDS011;46641;48.904;9.126;2023-04-02T00:44:38;0.60;;;0.60;;
60819;SDS011;46641;48.904;9.126;2023-04-02T00:49:37;0.97;;;0.50;;
60819;SDS011;46641;48.904;9.126;2023-04-02T00:54:30;0.53;;;0.53;;
60819;SDS011;46641;48.904;9.126;2023-04-02T00:59:27;0.70;;;0.47;;
60819;SDS011;46641;48.904;9.126;2023-04-02T01:09:34;1.40;;;0.50;;
60819;SDS011;46641;48.904;9.126;2023-04-02T01:19:50;0.50;;;0.50;;
60819;SDS011;46641;48.904;9.126;2023-04-02T01:24:47;0.50;;;0.40;;
60819;SDS011;46641;48.904;9.126;2023-04-02T01:29:41;0.67;;;0.40;;
60819;SDS011;46641;48.904;9.126;2023-04-02T01:34:35;1.17;;;0.40;;
60819;SDS011;46641;48.904;9.126;2023-04-02T01:44:31;0.70;;;0.50;;
60819;SDS011;46641;48.904;9.126;2023-04-02T01:49:36;0.97;;;0.50;;
60819;SDS011;46641;48.904;9.126;2023-04-02T01:54:29;0.83;;;0.40;;
60819;SDS011;46641;48.904;9.126;2023-04-02T01:59:20;0.30;;;0.30;;
60819;SDS011;46641;48.904;9.126;2023-04-02T02:04:12;0.40;;;0.40;;
60819;SDS011;46641;48.904;9.126;2023-04-02T02:09:04;0.60;;;0.57;;
60819;SDS011;46641;48.904;9.126;2023-04-02T02:14:00;0.90;;;0.80;;
60819;SDS011;46641;48.904;9.126;2023-04-02T02:18:56;0.67;;;0.60;;
60819;SDS011;46641;48.904;9.126;2023-04-02T02:23:50;0.50;;;0.50;;
60819;SDS011;46641;48.904;9.126;2023-04-02T02:28:41;0.60;;;0.60;;
60819;SDS011;46641;48.904;9.126;2023-04-02T02:33:36;0.93;;;0.40;;
60819;SDS011;46641;48.904;9.126;2023-04-02T02:43:28;0.57;;;0.50;;
60819;SDS011;46641;48.904;9.126;2023-04-02T02:48:19;0.30;;;0.30;;
60819;SDS011;46641;48.904;9.126;2023-04-02T02:53:18;1.63;;;0.90;;
60819;SDS011;46641;48.904;9.126;2023-04-02T02:58:13;1.90;;;0.50;;
60819;SDS011;46641;48.904;9.126;2023-04-02T03:03:08;0.50;;;0.50;;
60819;SDS011;46641;48.904;9.126;2023-04-02T03:08:06;0.50;;;0.40;;
60819;SDS011;46641;48.904;9.126;2023-04-02T03:18:13;0.77;;;0.57;;
60819;SDS011;46641;48.904;9.126;2023-04-02T03:23:27;1.33;;;0.40;;
60819;SDS011;46641;48.904;9.126;2023-04-02T03:28:23;0.50;;;0.40;;
60819;SDS011;46641;48.904;9.126;2023-04-02T03:33:26;0.30;;;0.30;;
60819;SDS011;46641;48.904;9.126;2023-04-02T03:38:26;0.40;;;0.40;;
60819;SDS011;46641;48.904;9.126;2023-04-02T03:43:20;0.43;;;0.43;;
60819;SDS011;46641;48.904;9.126;2023-04-02T03:53:24;0.80;;;0.47;;
60819;SDS011;46641;48.904;9.126;2023-04-02T03:58:17;0.30;;;0.30;;
60819;SDS011;46641;48.904;9.126;2023-04-02T04:03:30;0.70;;;0.70;;
60819;SDS011;46641;48.904;9.126;2023-04-02T04:08:30;0.93;;;0.40;;
60819;SDS011;46641;48.904;9.126;2023-04-02T04:13:28;1.00;;;0.60;;
60819;SDS011;46641;48.904;9.126;2023-04-02T04:18:28;1.27;;;0.60;;
60819;SDS011;46641;48.904;9.126;2023-04-02T04:23:34;0.90;;;0.90;;
60819;SDS011;46641;48.904;9.126;2023-04-02T04:28:37;0.83;;;0.50;;
60819;SDS011;46641;48.904;9.126;2023-04-02T04:33:54;1.63;;;0.60;;
60819;SDS011;46641;48.904;9.126;2023-04-02T04:38:54;0.80;;;0.80;;
60819;SDS011;46641;48.904;9.126;2023-04-02T04:53:59;0.93;;;0.70;;
60819;SDS011;46641;48.904;9.126;2023-04-02T04:59:00;1.60;;;0.83;;
60819;SDS011;46641;48.904;9.126;2023-04-02T05:09:15;2.67;;;0.70;;
60819;SDS011;46641;48.904;9.126;2023-04-02T05:14:12;0.60;;;0.60;;
60819;SDS011;46641;48.904;9.126;2023-04-02T05:19:38;1.70;;;0.70;;
60819;SDS011;46641;48.904;9.126;2023-04-02T05:29:55;1.13;;;0.60;;
60819;SDS011;46641;48.904;9.126;2023-04-02T05:34:53;1.10;;;0.50;;
60819;SDS011;46641;48.904;9.126;2023-04-02T05:39:47;0.50;;;0.50;;
60819;SDS011;46641;48.904;9.126;2023-04-02T05:44:49;1.20;;;0.97;;
60819;SDS011;46641;48.904;9.126;2023-04-02T05:55:03;2.70;;;1.00;;
60819;SDS011;46641;48.904;9.126;2023-04-02T06:00:03;1.90;;;0.70;;
60819;SDS011;46641;48.904;9.126;2023-04-02T06:10:06;4.27;;;2.87;;
60819;SDS011;46641;48.904;9.126;2023-04-02T06:15:01;1.07;;;1.07;;
60819;SDS011;46641;48.904;9.126;2023-04-02T06:19:52;2.60;;;1.40;;
60819;SDS011;46641;48.904;9.126;2023-04-02T06:24:46;1.17;;;1.10;;
60819;SDS011;46641;48.904;9.126;2023-04-02T06:29:41;1.10;;;0.90;;
60819;SDS011;46641;48.904;9.126;2023-04-02T06:34:35;1.03;;;0.97;;
60819;SDS011;46641;48.904;9.126;2023-04-02T06:39:27;0.70;;;0.70;;
60819;SDS011;46641;48.904;9.126;2023-04-02T06:44:19;1.33;;;1.00;;
60819;SDS011;46641;48.904;9.126;2023-04-02T06:54:13;1.37;;;1.27;;
60819;SDS011;46641;48.904;9.126;2023-04-02T06:59:05;1.30;;;1.20;;
60819;SDS011;46641;48.904;9.126;2023-04-02T07:03:56;1.50;;;1.40;;
60819;SDS011;46641;48.904;9.126;2023-04-02T07:08:47;1.90;;;1.50;;
60819;SDS011;46641;48.904;9.126;2023-04-02T07:13:38;1.50;;;1.40;;
60819;SDS011;46641;48.904;9.126;2023-04-02T07:18:29;1.70;;;1.53;;
60819;SDS011;46641;48.904;9.126;2023-04-02T07:23:21;4.70;;;1.97;;
60819;SDS011;46641;48.904;9.126;2023-04-02T07:28:11;1.10;;;1.10;;
60819;SDS011;46641;48.904;9.126;2023-04-02T07:33:03;2.57;;;2.37;;
60819;SDS011;46641;48.904;9.126;2023-04-02T07:37:54;2.10;;;0.90;;
60819;SDS011;46641;48.904;9.126;2023-04-02T07:42:44;0.93;;;0.55;;
60819;SDS011;46641;48.904;9.126;2023-04-02T07:47:34;0.63;;;0.63;;
60819;SDS011;46641;48.904;9.126;2023-04-02T07:52:24;0.40;;;0.40;;
60819;SDS011;46641;48.904;9.126;2023-04-02T07:57:15;0.60;;;0.60;;
60819;SDS011;46641;48.904;9.126;2023-04-02T08:02:05;0.70;;;0.70;;
60819;SDS011;46641;48.904;9.126;2023-04-02T08:06:55;0.47;;;0.40;;
60819;SDS011;46641;48.904;9.126;2023-04-02T08:11:46;0.95;;;0.90;;
60819;SDS011;46641;48.904;9.126;2023-04-02T08:16:46;1.07;;;0.73;;
60819;SDS011;46641;48.904;9.126;2023-04-02T08:21:38;1.00;;;0.90;;
60819;SDS011;46641;48.904;9.126;2023-04-02T08:26:29;1.27;;;1.13;;
60819;SDS011;46641;48.904;9.126;2023-04-02T08:31:20;1.00;;;0.70;;
60819;SDS011;46641;48.904;9.126;2023-04-02T08:36:14;0.80;;;0.80;;
60819;SDS011;46641;48.904;9.126;2023-04-02T08:41:06;0.90;;;0.90;;
60819;SDS011;46641;48.904;9.126;2023-04-02T08:46:05;1.10;;;1.00;;
60819;SDS011;46641;48.904;9.126;2023-04-02T08:51:05;1.07;;;0.60;;
60819;SDS011;46641;48.904;9.126;2023-04-02T08:56:08;0.80;;;0.80;;
60819;SDS011;46641;48.904;9.126;2023-04-02T09:01:10;2.00;;;1.90;;
60819;SDS011;46641;48.904;9.126;2023-04-02T09:06:11;0.70;;;0.70;;
60819;SDS011;46641;48.904;9.126;2023-04-02T09:11:48;0.40;;;0.40;;
60819;SDS011;46641;48.904;9.126;2023-04-02T09:16:36;0.30;;;0.30;;
60819;SDS011;46641;48.904;9.126;2023-04-02T09:21:34;0.47;;;0.47;;
60819;SDS011;46641;48.904;9.126;2023-04-02T09:26:31;0.60;;;0.60;;
60819;SDS011;46641;48.904;9.126;2023-04-02T09:31:25;0.50;;;0.40;;
60819;SDS011;46641;48.904;9.126;2023-04-02T09:41:24;0.57;;;0.50;;
60819;SDS011;46641;48.904;9.126;2023-04-02T09:46:21;0.30;;;0.30;;
60819;SDS011;46641;48.904;9.126;2023-04-02T09:51:14;0.40;;;0.40;;
60819;SDS011;46641;48.904;9.126;2023-04-02T10:01:27;0.97;;;0.50;;
60819;SDS011;46641;48.904;9.126;2023-04-02T10:06:19;0.40;;;0.40;;
60819;SDS011;46641;48.904;9.126;2023-04-02T10:11:18;0.87;;;0.37;;
60819;SDS011;46641;48.904;9.126;2023-04-02T10:16:26;0.57;;;0.50;;
60819;SDS011;46641;48.904;9.126;2023-04-02T10:21:25;0.60;;;0.60;;
60819;SDS011;46641;48.904;9.126;2023-04-02T10:31:25;0.90;;;0.73;;
60819;SDS011;46641;48.904;9.126;2023-04-02T10:56:28;1.03;;;1.03;;
60819;SDS011;46641;48.904;9.126;2023-04-02T11:01:23;1.10;;;1.10;;
60819;SDS011;46641;48.904;9.126;2023-04-02T11:06:19;0.43;;;0.43;;
60819;SDS011;46641;48.904;9.126;2023-04-02T11:11:14;0.40;;;0.40;;
60819;SDS011;46641;48.904;9.126;2023-04-02T11:16:10;1.20;;;1.20;;
60819;SDS011;46641;48.904;9.126;2023-04-02T11:21:43;0.57;;;0.57;;
60819;SDS011;46641;48.904;9.126;2023-04-02T11:26:41;0.90;;;0.90;;
60819;SDS011;46641;48.904;9.126;2023-04-02T11:31:35;1.10;;;0.80;;
60819;SDS011;46641;48.904;9.126;2023-04-02T11:46:48;1.00;;;0.90;;
60819;SDS011;46641;48.904;9.126;2023-04-02T11:56:50;0.70;;;0.70;;
60819;SDS011;46641;48.904;9.126;2023-04-02T12:06:52;1.03;;;1.00;;
60819;SDS011;46641;48.904;9.126;2023-04-02T12:11:43;1.30;;;1.20;;
60819;SDS011;46641;48.904;9.126;2023-04-02T12:16:36;1.20;;;1.10;;
60819;SDS011;46641;48.904;9.126;2023-04-02T12:21:27;0.90;;;0.90;;
60819;SDS011;46641;48.904;9.126;2023-04-02T12:26:34;0.50;;;0.50;;
60819;SDS011;46641;48.904;9.126;2023-04-02T12:31:26;1.03;;;1.03;;
60819;SDS011;46641;48.904;9.126;2023-04-02T12:36:20;1.53;;;1.27;;
60819;SDS011;46641;48.904;9.126;2023-04-02T12:41:28;1.33;;;1.33;;
60819;SDS011;46641;48.904;9.126;2023-04-02T12:46:20;0.80;;;0.80;;
60819;SDS011;46641;48.904;9.126;2023-04-02T12:51:13;1.30;;;1.20;;
60819;SDS011;46641;48.904;9.126;2023-04-02T12:56:04;1.53;;;1.43;;
60819;SDS011;46641;48.904;9.126;2023-04-02T13:01:14;1.60;;;1.50;;
60819;SDS011;46641;48.904;9.126;2023-04-02T13:06:20;1.50;;;1.17;;
60819;SDS011;46641;48.904;9.126;2023-04-02T13:11:13;1.27;;;1.20;;
60819;SDS011;46641;48.904;9.126;2023-04-02T13:31:16;1.33;;;1.03;;
60819;SDS011;46641;48.904;9.126;2023-04-02T13:36:09;1.50;;;1.40;;
60819;SDS011;46641;48.904;9.126;2023-04-02T13:41:03;1.13;;;1.10;;
60819;SDS011;46641;48.904;9.126;2023-04-02T13:45:53;1.50;;;1.37;;
60819;SDS011;46641;48.904;9.126;2023-04-02T13:50:47;1.07;;;1.07;;
60819;SDS011;46641;48.904;9.126;2023-04-02T13:55:38;1.33;;;1.25;;
60819;SDS011;46641;48.904;9.126;2023-04-02T14:00:31;1.60;;;1.50;;
60819;SDS011;46641;48.904;9.126;2023-04-02T14:05:35;1.47;;;1.30;;
60819;SDS011;46641;48.904;9.126;2023-04-02T14:10:44;1.13;;;1.03;;
60819;SDS011;46641;48.904;9.126;2023-04-02T14:15:53;4.00;;;2.10;;
60819;SDS011;46641;48.904;9.126;2023-04-02T14:26:17;4.10;;;2.50;;
60819;SDS011;46641;48.904;9.126;2023-04-02T14:31:35;2.40;;;2.20;;
60819;SDS011;46641;48.904;9.126;2023-04-02T14:36:53;1.97;;;1.73;;
60819;SDS011;46641;48.904;9.126;2023-04-02T14:42:00;1.97;;;1.17;;
60819;SDS011;46641;48.904;9.126;2023-04-02T14:47:00;1.60;;;1.50;;
60819;SDS011;46641;48.904;9.126;2023-04-02T14:52:02;1.57;;;1.47;;
60819;SDS011;46641;48.904;9.126;2023-04-02T14:56:59;2.30;;;2.00;;
60819;SDS011;46641;48.904;9.126;2023-04-02T15:01:57;1.67;;;1.57;;
60819;SDS011;46641;48.904;9.126;2023-04-02T15:06:52;1.53;;;1.10;;
60819;SDS011;46641;48.904;9.126;2023-04-02T15:12:08;0.83;;;0.83;;
60819;SDS011;46641;48.904;9.126;2023-04-02T15:17:10;1.00;;;1.00;;
60819;SDS011;46641;48.904;9.126;2023-04-02T15:22:20;1.60;;;1.50;;
60819;SDS011;46641;48.904;9.126;2023-04-02T15:27:34;1.60;;;1.50;;
60819;SDS011;46641;48.904;9.126;2023-04-02T15:32:34;1.70;;;1.60;;
60819;SDS011;46641;48.904;9.126;2023-04-02T15:37:29;1.70;;;1.60;;
60819;SDS011;46641;48.904;9.126;2023-04-02T15:42:38;1.23;;;1.20;;
60819;SDS011;46641;48.904;9.126;2023-04-02T15:47:44;1.70;;;1.43;;
60819;SDS011;46641;48.904;9.126;2023-04-02T16:08:20;1.60;;;1.50;;
60819;SDS011;46641;48.904;9.126;2023-04-02T16:23:40;1.20;;;1.20;;
60819;SDS011;46641;48.904;9.126;2023-04-02T16:39:43;1.70;;;1.60;;
60819;SDS011;46641;48.904;9.126;2023-04-02T16:54:50;2.20;;;2.00;;
60819;SDS011;46641;48.904;9.126;2023-04-02T17:04:56;2.63;;;1.70;;
60819;SDS011;46641;48.904;9.126;2023-04-02T17:10:03;2.20;;;2.00;;
60819;SDS011;46641;48.904;9.126;2023-04-02T17:15:30;2.03;;;1.80;;
60819;SDS011;46641;48.904;9.126;2023-04-02T17:20:25;1.77;;;1.67;;
60819;SDS011;46641;48.904;9.126;2023-04-02T17:25:36;2.00;;;1.90;;
60819;SDS011;46641;48.904;9.126;2023-04-02T17:35:43;2.57;;;2.33;;
60819;SDS011;46641;48.904;9.126;2023-04-02T17:40:42;2.37;;;2.17;;
60819;SDS011;46641;48.904;9.126;2023-04-02T17:45:50;2.97;;;2.77;;
60819;SDS011;46641;48.904;9.126;2023-04-02T17:56:00;2.10;;;2.00;;
60819;SDS011;46641;48.904;9.126;2023-04-02T18:01:13;2.20;;;2.00;;
60819;SDS011;46641;48.904;9.126;2023-04-02T18:26:43;2.60;;;2.40;;
60819;SDS011;46641;48.904;9.126;2023-04-02T18:37:21;2.47;;;2.27;;
60819;SDS011;46641;48.904;9.126;2023-04-02T18:47:29;2.50;;;2.30;;
60819;SDS011;46641;48.904;9.126;2023-04-02T18:52:28;2.60;;;2.40;;
60819;SDS011;46641;48.904;9.126;2023-04-02T18:57:21;2.70;;;2.50;;
60819;SDS011;46641;48.904;9.126;2023-04-02T19:02:21;2.90;;;2.30;;
60819;SDS011;46641;48.904;9.126;2023-04-02T19:07:18;2.70;;;2.50;;
60819;SDS011;46641;48.904;9.126;2023-04-02T19:12:17;2.53;;;2.33;;
60819;SDS011;46641;48.904;9.126;2023-04-02T19:37:43;3.00;;;2.53;;
60819;SDS011;46641;48.904;9.126;2023-04-02T19:42:45;2.43;;;2.23;;
60819;SDS011;46641;48.904;9.126;2023-04-02T19:47:38;2.40;;;2.20;;
60819;SDS011;46641;48.904;9.126;2023-04-02T19:52:28;2.45;;;2.25;;
60819;SDS011;46641;48.904;9.126;2023-04-02T19:57:18;2.40;;;2.30;;
60819;SDS011;46641;48.904;9.126;2023-04-02T20:02:09;3.53;;;2.73;;
60819;SDS011;46641;48.904;9.126;2023-04-02T20:07:00;2.33;;;2.23;;
60819;SDS011;46641;48.904;9.126;2023-04-02T20:11:50;2.08;;;1.73;;
60819;SDS011;46641;48.904;9.126;2023-04-02T20:16:40;2.90;;;2.57;;
60819;SDS011;46641;48.904;9.126;2023-04-02T20:21:30;2.60;;;2.10;;
60819;SDS011;46641;48.904;9.126;2023-04-02T20:26:26;2.20;;;2.10;;
60819;SDS011;46641;48.904;9.126;2023-04-02T20:31:18;2.20;;;1.70;;
60819;SDS011;46641;48.904;9.126;2023-04-02T20:36:09;2.20;;;2.00;;
60819;SDS011;46641;48.904;9.126;2023-04-02T20:41:02;2.03;;;1.87;;
60819;SDS011;46641;48.904;9.126;2023-04-02T20:45:55;2.13;;;2.00;;
60819;SDS011;46641;48.904;9.126;2023-04-02T20:50:47;2.07;;;1.87;;
60819;SDS011;46641;48.904;9.126;2023-04-02T20:55:38;2.83;;;1.97;;
60819;SDS011;46641;48.904;9.126;2023-04-02T21:00:28;2.50;;;2.30;;
60819;SDS011;46641;48.904;9.126;2023-04-02T21:05:18;2.63;;;2.43;;
60819;SDS011;46641;48.904;9.126;2023-04-02T21:10:09;2.10;;;1.88;;
60819;SDS011;46641;48.904;9.126;2023-04-02T21:14:59;2.20;;;2.00;;
60819;SDS011;46641;48.904;9.126;2023-04-02T21:19:50;2.83;;;2.50;;
60819;SDS011;46641;48.904;9.126;2023-04-02T21:24:40;2.30;;;2.10;;
60819;SDS011;46641;48.904;9.126;2023-04-02T21:29:30;2.00;;;1.90;;
60819;SDS011;46641;48.904;9.126;2023-04-02T21:34:21;2.10;;;2.00;;
60819;SDS011;46641;48.904;9.126;2023-04-02T21:39:18;2.30;;;2.10;;
60819;SDS011;46641;48.904;9.126;2023-04-02T21:44:13;2.17;;;1.97;;
60819;SDS011;46641;48.904;9.126;2023-04-02T21:49:04;1.93;;;1.83;;
60819;SDS011;46641;48.904;9.126;2023-04-02T21:53:57;2.10;;;1.90;;
60819;SDS011;46641;48.904;9.126;2023-04-02T21:58:48;2.30;;;2.10;;
60819;SDS011;46641;48.904;9.126;2023-04-02T22:03:40;3.27;;;2.90;;
60819;SDS011;46641;48.904;9.126;2023-04-02T22:08:31;2.20;;;2.00;;
60819;SDS011;46641;48.904;9.126;2023-04-02T22:13:22;2.10;;;1.90;;
60819;SDS011;46641;48.904;9.126;2023-04-02T22:18:12;2.77;;;2.00;;
60819;SDS011;46641;48.904;9.126;2023-04-02T22:23:02;2.47;;;2.00;;
60819;SDS011;46641;48.904;9.126;2023-04-02T22:27:52;2.53;;;2.17;;
60819;SDS011;46641;48.904;9.126;2023-04-02T22:32:43;2.13;;;2.00;;
60819;SDS011;46641;48.904;9.126;2023-04-02T22:37:33;3.63;;;2.50;;
60819;SDS011;46641;48.904;9.126;2023-04-02T22:42:23;2.45;;;2.25;;
60819;SDS011;46641;48.904;9.126;2023-04-02T22:47:15;1.87;;;1.77;;
60819;SDS011;46641;48.904;9.126;2023-04-02T22:52:06;2.63;;;2.20;;
60819;SDS011;46641;48.904;9.126;2023-04-02T22:56:57;2.10;;;2.00;;
60819;SDS011;46641;48.904;9.126;2023-04-02T23:01:48;2.58;;;1.90;;
60819;SDS011;46641;48.904;9.126;2023-04-02T23:06:38;2.20;;;2.05;;
60819;SDS011;46641;48.904;9.126;2023-04-02T23:11:28;2.65;;;2.10;;
60819;SDS011;46641;48.904;9.126;2023-04-02T23:16:19;2.47;;;2.27;;
60819;SDS011;46641;48.904;9.126;2023-04-02T23:21:10;2.20;;;2.00;;
60819;SDS011;46641;48.904;9.126;2023-04-02T23:26:07;1.70;;;1.60;;
60819;SDS011;46641;48.904;9.126;2023-04-02T23:31:00;2.43;;;2.23;;
60819;SDS011;46641;48.904;9.126;2023-04-02T23:35:52;2.27;;;2.10;;
60819;SDS011;46641;48.904;9.126;2023-04-02T23:40:42;2.70;;;2.40;;
60819;SDS011;46641;48.904;9.126;2023-04-02T23:45:32;2.50;;;2.30;;
60819;SDS011;46641;48.904;9.126;2023-04-02T23:50:22;2.25;;;2.05;;
60819;SDS011;46641;48.904;9.126;2023-04-02T23:55:13;2.23;;;2.03;;
